Terminal Aerodrome Forecast
Issued by NWS Mt. Holly, NJ

Home | Current Version | Previous Version | Text Only | Print | Product List | Glossary On
Versions: 1 2 3 4 5 6 7 8 9 10 11 12 13 14 15
806
FTUS41 KPHI 241134
TAFTTN
TAF
KTTN 241134Z 2412/2512 VRB03KT P6SM BKN100
     FM241700 09007KT P6SM BKN100 PROB30 2421/2503 6SM -RA BR OVC035
     FM250300 08009KT 5SM -RA BR OVC025
     FM250700 06011KT 5SM -RA BR OVC008=

USA.gov is the U.S. government's official web portal to all federal, state and local government web resources and services.